UAL1896 KMEM-KRDU
Flight info
| Callsign | UAL1896 |
|---|---|
| Flight time | N/A |
| Altitude | 35000 |
| Route | KMEM/36L N0439F370 GOETZ7 DIYAB DCT VXV DCT KPASS ALDAN4 KRDU/23L |
| Aircraft | B738/M-B738/L |
Departure
| Time | 2026-05-07 03:18 |
|---|---|
| Airport | Memphis International Airport (KMEM) |
Arrival
| Time | N/A |
|---|---|
| Airport | Raleigh-Durham International Airport (KRDU) |
| Time | Latitude | Longitude | Altitude | Speed | Heading |
|---|---|---|---|---|---|
| 2026-05-07 02:37 | 35.04168 | -89.98182 | 309 ft | 0 kts | 351° |
| 2026-05-07 03:02 | 35.04155 | -89.98179 | 278 ft | 3 kts | 351° |
| 2026-05-07 03:02 | 35.04137 | -89.98176 | 309 ft | 3 kts | 351° |
| 2026-05-07 03:02 | 35.04120 | -89.98180 | 308 ft | 3 kts | 54° |
| 2026-05-07 03:02 | 35.04115 | -89.98201 | 308 ft | 3 kts | 120° |
| 2026-05-07 03:03 | 35.04128 | -89.98217 | 306 ft | 2 kts | 155° |
| 2026-05-07 03:03 | 35.04132 | -89.98219 | 306 ft | 0 kts | 155° |
| 2026-05-07 03:03 | 35.04117 | -89.98211 | 307 ft | 1 kts | 158° |
| 2026-05-07 03:03 | 35.04115 | -89.98210 | 307 ft | 1 kts | 160° |
| 2026-05-07 03:04 | 35.04117 | -89.98211 | 307 ft | 0 kts | 160° |
| 2026-05-07 03:04 | 35.04088 | -89.98186 | 308 ft | 5 kts | 148° |
| 2026-05-07 03:04 | 35.04068 | -89.98176 | 310 ft | 0 kts | 163° |
| 2026-05-07 03:07 | 35.04058 | -89.98175 | 310 ft | 8 kts | 175° |
| 2026-05-07 03:07 | 35.04037 | -89.98178 | 309 ft | 0 kts | 192° |
| 2026-05-07 03:09 | 35.04025 | -89.98182 | 309 ft | 8 kts | 198° |
| 2026-05-07 03:10 | 35.03975 | -89.98247 | 306 ft | 12 kts | 231° |
| 2026-05-07 03:10 | 35.03937 | -89.98268 | 306 ft | 0 kts | 187° |
| 2026-05-07 03:10 | 35.03872 | -89.98270 | 307 ft | 20 kts | 179° |
| 2026-05-07 03:10 | 35.03789 | -89.98348 | 307 ft | 18 kts | 263° |
| 2026-05-07 03:11 | 35.03775 | -89.98465 | 307 ft | 11 kts | 227° |
| 2026-05-07 03:11 | 35.03678 | -89.98487 | 309 ft | 17 kts | 179° |
| 2026-05-07 03:11 | 35.03553 | -89.98478 | 313 ft | 18 kts | 179° |
| 2026-05-07 03:11 | 35.03415 | -89.98478 | 314 ft | 24 kts | 180° |
| 2026-05-07 03:12 | 35.03217 | -89.98472 | 315 ft | 30 kts | 179° |
| 2026-05-07 03:12 | 35.03014 | -89.98468 | 314 ft | 29 kts | 179° |
| 2026-05-07 03:12 | 35.02820 | -89.98461 | 314 ft | 26 kts | 178° |
| 2026-05-07 03:12 | 35.02650 | -89.98462 | 318 ft | 23 kts | 180° |
| 2026-05-07 03:13 | 35.02515 | -89.98454 | 319 ft | 5 kts | 179° |
| 2026-05-07 03:13 | 35.02501 | -89.98453 | 319 ft | 4 kts | 179° |
| 2026-05-07 03:13 | 35.02468 | -89.98456 | 320 ft | 9 kts | 182° |
| 2026-05-07 03:13 | 35.02417 | -89.98479 | 320 ft | 9 kts | 230° |
| 2026-05-07 03:14 | 35.02404 | -89.98558 | 322 ft | 0 kts | 271° |
| 2026-05-07 03:16 | 35.02405 | -89.98594 | 322 ft | 13 kts | 271° |
| 2026-05-07 03:16 | 35.02411 | -89.98679 | 320 ft | 7 kts | 299° |
| 2026-05-07 03:17 | 35.02449 | -89.98692 | 322 ft | 0 kts | 359° |
| 2026-05-07 03:17 | 35.02454 | -89.98693 | 320 ft | 5 kts | 359° |
| 2026-05-07 03:17 | 35.02722 | -89.98695 | 313 ft | 83 kts | 0° |
| 2026-05-07 03:17 | 35.03571 | -89.98715 | 312 ft | 158 kts | 359° |
| 2026-05-07 03:18 | 35.04656 | -89.98738 | 649 ft | 183 kts | 1° |
| 2026-05-07 03:18 | 35.05184 | -89.98751 | 1370 ft | 165 kts | 1° |
| 2026-05-07 03:18 | 35.06196 | -89.98800 | 2928 ft | 139 kts | 1° |
| 2026-05-07 03:18 | 35.07253 | -89.98808 | 3512 ft | 165 kts | 11° |
| 2026-05-07 03:19 | 35.08314 | -89.98221 | 4275 ft | 176 kts | 35° |
| 2026-05-07 03:19 | 35.09273 | -89.97200 | 5002 ft | 189 kts | 37° |
| 2026-05-07 03:19 | 35.10342 | -89.96174 | 5640 ft | 194 kts | 32° |
| 2026-05-07 03:19 | 35.11439 | -89.95213 | 6339 ft | 198 kts | 29° |
| 2026-05-07 03:20 | 35.12586 | -89.94192 | 6817 ft | 219 kts | 40° |
| 2026-05-07 03:20 | 35.13530 | -89.92604 | 7127 ft | 241 kts | 60° |
| 2026-05-07 03:20 | 35.14095 | -89.90587 | 7415 ft | 259 kts | 81° |
| 2026-05-07 03:20 | 35.14186 | -89.88317 | 7714 ft | 275 kts | 93° |
| 2026-05-07 03:21 | 35.14120 | -89.85946 | 8004 ft | 291 kts | 94° |
| 2026-05-07 03:21 | 35.14053 | -89.83402 | 8280 ft | 307 kts | 91° |
| 2026-05-07 03:21 | 35.14322 | -89.80791 | 8505 ft | 312 kts | 78° |
| 2026-05-07 03:21 | 35.14812 | -89.78190 | 8753 ft | 314 kts | 77° |
| 2026-05-07 03:22 | 35.15309 | -89.75581 | 9031 ft | 314 kts | 77° |
| 2026-05-07 03:22 | 35.15770 | -89.73002 | 9297 ft | 315 kts | 78° |
| 2026-05-07 03:22 | 35.16221 | -89.70369 | 9574 ft | 316 kts | 79° |
| 2026-05-07 03:22 | 35.16661 | -89.67752 | 9864 ft | 318 kts | 79° |
| 2026-05-07 03:23 | 35.17107 | -89.65089 | 10129 ft | 321 kts | 79° |
| 2026-05-07 03:23 | 35.17556 | -89.62398 | 10399 ft | 328 kts | 79° |
| 2026-05-07 03:23 | 35.18028 | -89.59559 | 10709 ft | 350 kts | 79° |
| 2026-05-07 03:23 | 35.18529 | -89.56555 | 11009 ft | 371 kts | 79° |
| 2026-05-07 03:24 | 35.18876 | -89.54468 | 11206 ft | 385 kts | 79° |
| 2026-05-07 03:24 | 35.19424 | -89.51175 | 11500 ft | 403 kts | 79° |
| 2026-05-07 03:24 | 35.19957 | -89.47720 | 11785 ft | 420 kts | 83° |
| 2026-05-07 03:24 | 35.20263 | -89.44137 | 12077 ft | 434 kts | 87° |
| 2026-05-07 03:25 | 35.20460 | -89.40408 | 12348 ft | 443 kts | 88° |
| 2026-05-07 03:25 | 35.20645 | -89.36641 | 12609 ft | 443 kts | 88° |
| 2026-05-07 03:25 | 35.20855 | -89.32886 | 12876 ft | 443 kts | 87° |
| 2026-05-07 03:25 | 35.21093 | -89.29121 | 13153 ft | 444 kts | 86° |
| 2026-05-07 03:26 | 35.21345 | -89.25337 | 13433 ft | 447 kts | 86° |
| 2026-05-07 03:26 | 35.21656 | -89.21576 | 13711 ft | 450 kts | 81° |
| 2026-05-07 03:26 | 35.22505 | -89.17882 | 13980 ft | 453 kts | 70° |
| 2026-05-07 03:26 | 35.23566 | -89.14264 | 14497 ft | 452 kts | 70° |
| 2026-05-07 03:27 | 35.24565 | -89.10571 | 15044 ft | 457 kts | 73° |
| 2026-05-07 03:27 | 35.25318 | -89.06771 | 15587 ft | 462 kts | 79° |
| 2026-05-07 03:27 | 35.25906 | -89.02875 | 16139 ft | 466 kts | 82° |
| 2026-05-07 03:27 | 35.26421 | -88.98983 | 16704 ft | 470 kts | 82° |
| 2026-05-07 03:28 | 35.26933 | -88.95009 | 17284 ft | 474 kts | 83° |
| 2026-05-07 03:28 | 35.27463 | -88.90997 | 17878 ft | 477 kts | 82° |
| 2026-05-07 03:28 | 35.28010 | -88.87009 | 18452 ft | 481 kts | 82° |
| 2026-05-07 03:28 | 35.28584 | -88.82948 | 18978 ft | 484 kts | 82° |
| 2026-05-07 03:29 | 35.29168 | -88.78907 | 19506 ft | 487 kts | 81° |
| 2026-05-07 03:29 | 35.29768 | -88.74800 | 20048 ft | 489 kts | 81° |
| 2026-05-07 03:29 | 35.30370 | -88.70692 | 20604 ft | 492 kts | 81° |
| 2026-05-07 03:29 | 35.30976 | -88.66557 | 21166 ft | 494 kts | 81° |
| 2026-05-07 03:30 | 35.31577 | -88.62439 | 21734 ft | 495 kts | 81° |
| 2026-05-07 03:30 | 35.32183 | -88.58275 | 22317 ft | 496 kts | 81° |
| 2026-05-07 03:30 | 35.32786 | -88.54118 | 23089 ft | 491 kts | 81° |
| 2026-05-07 03:30 | 35.33379 | -88.50010 | 23912 ft | 485 kts | 81° |
| 2026-05-07 03:31 | 35.33954 | -88.46023 | 24638 ft | 478 kts | 82° |
| 2026-05-07 03:31 | 35.34528 | -88.42031 | 25392 ft | 471 kts | 82° |
| 2026-05-07 03:31 | 35.35091 | -88.38100 | 26159 ft | 463 kts | 82° |
| 2026-05-07 03:31 | 35.35643 | -88.34243 | 26934 ft | 455 kts | 83° |
| 2026-05-07 03:32 | 35.36177 | -88.30502 | 27738 ft | 445 kts | 83° |
| 2026-05-07 03:32 | 35.36704 | -88.26806 | 28557 ft | 434 kts | 84° |
| 2026-05-07 03:32 | 35.37216 | -88.23204 | 29280 ft | 427 kts | 84° |
| 2026-05-07 03:32 | 35.37725 | -88.19602 | 29630 ft | 430 kts | 84° |
| 2026-05-07 03:33 | 35.38235 | -88.15958 | 29918 ft | 435 kts | 84° |
| 2026-05-07 03:33 | 35.38744 | -88.12318 | 30143 ft | 441 kts | 84° |
| 2026-05-07 03:33 | 35.39267 | -88.08572 | 30318 ft | 447 kts | 84° |
| 2026-05-07 03:33 | 35.39798 | -88.04774 | 30514 ft | 454 kts | 84° |
| 2026-05-07 03:34 | 35.40329 | -88.00970 | 30706 ft | 460 kts | 84° |
| 2026-05-07 03:34 | 35.40875 | -87.97056 | 30899 ft | 468 kts | 84° |
| 2026-05-07 03:34 | 35.41428 | -87.93082 | 31098 ft | 476 kts | 84° |
| 2026-05-07 03:34 | 35.41988 | -87.89047 | 31294 ft | 483 kts | 84° |
| 2026-05-07 03:35 | 35.42548 | -87.85003 | 31478 ft | 491 kts | 84° |
| 2026-05-07 03:35 | 35.43124 | -87.80841 | 31683 ft | 498 kts | 84° |
| 2026-05-07 03:35 | 35.43707 | -87.76615 | 31873 ft | 505 kts | 83° |
| 2026-05-07 03:35 | 35.44294 | -87.72343 | 32069 ft | 512 kts | 83° |
| 2026-05-07 03:36 | 35.44891 | -87.67994 | 32255 ft | 518 kts | 84° |
| 2026-05-07 03:36 | 35.45491 | -87.63601 | 32452 ft | 524 kts | 84° |
| 2026-05-07 03:36 | 35.46090 | -87.59215 | 32645 ft | 530 kts | 84° |
| 2026-05-07 03:36 | 35.46702 | -87.54713 | 32834 ft | 536 kts | 84° |
| 2026-05-07 03:37 | 35.47318 | -87.50169 | 33040 ft | 541 kts | 84° |
| 2026-05-07 03:37 | 35.47932 | -87.45628 | 33287 ft | 546 kts | 83° |
| 2026-05-07 03:37 | 35.48556 | -87.40997 | 33481 ft | 551 kts | 83° |
| 2026-05-07 03:37 | 35.49183 | -87.36336 | 33676 ft | 555 kts | 83° |
| 2026-05-07 03:38 | 35.49813 | -87.31631 | 33848 ft | 560 kts | 84° |
| 2026-05-07 03:38 | 35.50446 | -87.26889 | 34049 ft | 563 kts | 84° |
| 2026-05-07 03:38 | 35.51075 | -87.22171 | 34228 ft | 567 kts | 84° |
| 2026-05-07 03:38 | 35.51711 | -87.17382 | 34406 ft | 570 kts | 84° |
| 2026-05-07 03:39 | 35.52351 | -87.12541 | 34576 ft | 573 kts | 84° |
| 2026-05-07 03:39 | 35.52992 | -87.07686 | 34752 ft | 576 kts | 84° |
| 2026-05-07 03:39 | 35.53625 | -87.02867 | 34920 ft | 579 kts | 83° |
| 2026-05-07 03:39 | 35.54268 | -86.97956 | 35033 ft | 583 kts | 83° |
| 2026-05-07 03:40 | 35.54913 | -86.93014 | 35016 ft | 590 kts | 84° |
| 2026-05-07 03:40 | 35.56203 | -86.83116 | 34996 ft | 572 kts | 84° |
| 2026-05-07 03:40 | 35.56816 | -86.78415 | 34995 ft | 559 kts | 84° |
| 2026-05-07 03:41 | 35.57428 | -86.73683 | 34678 ft | 559 kts | 84° |
| 2026-05-07 03:41 | 35.58620 | -86.64385 | 35085 ft | 546 kts | 84° |
| 2026-05-07 03:42 | 35.59801 | -86.55062 | 35045 ft | 559 kts | 84° |
| 2026-05-07 03:42 | 35.61001 | -86.45555 | 35025 ft | 562 kts | 84° |
| 2026-05-07 03:43 | 35.62199 | -86.36049 | 35025 ft | 563 kts | 84° |
| 2026-05-07 03:43 | 35.63387 | -86.26558 | 35030 ft | 563 kts | 84° |
| 2026-05-07 03:44 | 35.64570 | -86.17041 | 34985 ft | 561 kts | 84° |
| 2026-05-07 03:44 | 35.65738 | -86.07578 | 35010 ft | 556 kts | 84° |
| 2026-05-07 03:45 | 35.66886 | -85.98213 | 35011 ft | 553 kts | 84° |
| 2026-05-07 03:45 | 35.68021 | -85.88892 | 35017 ft | 551 kts | 84° |
| 2026-05-07 03:46 | 35.69142 | -85.79608 | 35031 ft | 552 kts | 84° |
| 2026-05-07 03:46 | 35.70267 | -85.70233 | 35039 ft | 553 kts | 84° |
| 2026-05-07 03:47 | 35.71386 | -85.60858 | 35030 ft | 555 kts | 84° |
| 2026-05-07 03:47 | 35.72502 | -85.51435 | 35025 ft | 557 kts | 85° |
| 2026-05-07 03:48 | 35.73610 | -85.42021 | 34987 ft | 559 kts | 84° |
| 2026-05-07 03:48 | 35.74721 | -85.32518 | 34985 ft | 562 kts | 85° |
| 2026-05-07 03:49 | 35.75823 | -85.23028 | 34981 ft | 562 kts | 85° |
| 2026-05-07 03:49 | 35.76923 | -85.13492 | 34987 ft | 561 kts | 85° |
| 2026-05-07 03:50 | 35.78015 | -85.03948 | 34948 ft | 561 kts | 85° |
| 2026-05-07 03:50 | 35.79092 | -84.94466 | 34970 ft | 561 kts | 85° |
| 2026-05-07 03:51 | 35.80165 | -84.84956 | 34964 ft | 559 kts | 85° |
| 2026-05-07 03:51 | 35.81221 | -84.75525 | 34958 ft | 557 kts | 85° |
| 2026-05-07 03:52 | 35.82273 | -84.66070 | 34953 ft | 556 kts | 85° |
| 2026-05-07 03:52 | 35.83316 | -84.56608 | 34963 ft | 555 kts | 85° |
| 2026-05-07 03:53 | 35.84341 | -84.47245 | 34974 ft | 555 kts | 85° |
| 2026-05-07 03:53 | 35.85371 | -84.37773 | 34983 ft | 556 kts | 85° |
| 2026-05-07 03:54 | 35.86393 | -84.28303 | 34975 ft | 560 kts | 85° |
| 2026-05-07 03:54 | 35.87421 | -84.18677 | 34987 ft | 572 kts | 85° |
| 2026-05-07 03:55 | 35.88467 | -84.08840 | 34998 ft | 583 kts | 85° |
| 2026-05-07 03:55 | 35.89520 | -83.98868 | 35000 ft | 594 kts | 85° |
| 2026-05-07 03:56 | 35.90955 | -83.88727 | 34977 ft | 603 kts | 74° |
| 2026-05-07 03:56 | 35.94086 | -83.79214 | 34998 ft | 602 kts | 62° |
| 2026-05-07 03:57 | 35.97704 | -83.69885 | 34986 ft | 603 kts | 62° |
| 2026-05-07 03:57 | 36.01283 | -83.60484 | 34974 ft | 603 kts | 63° |
| 2026-05-07 03:58 | 36.04753 | -83.51107 | 34957 ft | 602 kts | 63° |
| 2026-05-07 03:58 | 36.08217 | -83.41645 | 35037 ft | 601 kts | 63° |
| 2026-05-07 03:59 | 36.11653 | -83.32249 | 35008 ft | 600 kts | 63° |
| 2026-05-07 03:59 | 36.15099 | -83.22819 | 35001 ft | 600 kts | 63° |
| 2026-05-07 04:00 | 36.18509 | -83.13472 | 34976 ft | 599 kts | 63° |
| 2026-05-07 04:00 | 36.21933 | -83.04051 | 34981 ft | 599 kts | 63° |
| 2026-05-07 04:01 | 36.25347 | -82.94632 | 34995 ft | 599 kts | 63° |
| 2026-05-07 04:01 | 36.28732 | -82.85260 | 34998 ft | 599 kts | 63° |
| 2026-05-07 04:02 | 36.32132 | -82.75818 | 34983 ft | 599 kts | 63° |
| 2026-05-07 04:02 | 36.35515 | -82.66393 | 34901 ft | 599 kts | 63° |
| 2026-05-07 04:02 | 36.37216 | -82.61646 | 34671 ft | 596 kts | 63° |
| 2026-05-07 04:03 | 36.38882 | -82.56982 | 34429 ft | 585 kts | 63° |
| 2026-05-07 04:03 | 36.40504 | -82.52432 | 34204 ft | 576 kts | 63° |
| 2026-05-07 04:03 | 36.42112 | -82.47918 | 34037 ft | 568 kts | 63° |
| 2026-05-07 04:03 | 36.43701 | -82.43453 | 33804 ft | 562 kts | 63° |
| 2026-05-07 04:04 | 36.45287 | -82.38998 | 33580 ft | 561 kts | 62° |
| 2026-05-07 04:04 | 36.46861 | -82.34571 | 33358 ft | 559 kts | 63° |
| 2026-05-07 04:04 | 36.48409 | -82.30210 | 33132 ft | 558 kts | 63° |
| 2026-05-07 04:04 | 36.49976 | -82.25787 | 32939 ft | 556 kts | 63° |
| 2026-05-07 04:05 | 36.51531 | -82.21388 | 32705 ft | 555 kts | 63° |
| 2026-05-07 04:05 | 36.53088 | -82.16976 | 32475 ft | 553 kts | 63° |
| 2026-05-07 04:05 | 36.54628 | -82.12607 | 32244 ft | 552 kts | 63° |
| 2026-05-07 04:05 | 36.56167 | -82.08235 | 32023 ft | 550 kts | 63° |
| 2026-05-07 04:06 | 36.57680 | -82.03929 | 31821 ft | 549 kts | 64° |